Sand Spring Valley, Nevada Weather observations

Data are for 10 minute period ending at time listed.
 Day   Time   Solar   Ave.   Ave.  Ave.  Vector  Max.   Baro.   Total    
  of    of     Rad.   Air    Rel.  Wind   Wind   Wind  Press.  Precip.   
Year   Day            Temp.  Hum.  Speed  Dir.   Gust                    
2016   (PST)  Kw/m2    F      %     mph   deg.    mph    mb.     in.     
-------------------------------------------------------------------------
  43    7:00   0.00    3.5    85    0.0     0     0.0   862.1    0.00 
  43    7:10   0.00    5.0    87    0.0     0     0.0   862.1    0.00 
  43    7:20   0.00    7.7    89    0.0     0     0.0   862.3    0.00 
  43    7:30   0.00    9.2    88    0.0     0     0.0   862.3    0.00 
  43    7:40   0.00    7.7    88    0.0     0     0.0   862.4    0.00 
  43    7:50   0.00    9.5    90    0.0     0     0.0   862.5    0.00 
  43    8:00   0.00   11.3    90    0.0     0     0.0   862.5    0.00 
  43    8:10   0.00   10.3    88    0.0     0     0.0   862.6    0.00 
  43    8:20   0.00   10.7    89    0.0     0     0.0   862.6    0.00 
  43    8:30   0.00   13.3    91    0.0     0     0.0   862.7    0.00 
  43    8:40   0.00   12.7    88    0.0     0     0.0   862.8    0.00 
  43    8:50   0.00   15.8    92    0.0     0     0.0   862.8    0.00 
  43    9:00   0.00   23.1    93    0.0     0     0.0   862.9    0.00 
  43    9:10   0.00   25.2    90    0.0     0     0.0   862.9    0.00 
  43    9:20   0.00   22.2    84    0.0     0     0.0   862.9    0.00 
  43    9:30   0.00   16.8    81    0.0     0     0.0   862.9    0.00 
  43    9:40   0.00   16.7    84    0.0     0     0.0   862.9    0.00 
  43    9:50   0.00   18.8    81    0.0     0     0.0   862.9    0.00 
  43   10:00   0.00   22.3    82    0.0     0     0.0   863.0    0.00 
  43   10:10   0.00   28.1    79    0.0     0     0.0   862.9    0.00 
  43   10:20   0.00   31.8    68    0.0     0     0.0   862.9    0.00 
  43   10:30   0.00   35.1    62    0.0     0     0.0   862.9    0.00 
  43   10:40   0.00   27.9    55    0.0     0     0.0   862.9    0.00 
  43   10:50   0.00   25.5    61    0.2   305     1.0   862.8    0.00 
  43   11:00   0.00   27.0    60    0.1   305     0.7   862.6    0.00 
  43   11:10   0.00   30.5    55    0.0     0     0.0   862.5    0.00 
  43   11:20   0.00   32.5    53    0.5   304     2.2   862.4    0.00 
  43   11:30   0.00   29.1    56    1.5   291     2.7   862.2    0.00 
  43   11:40   0.00   30.7    60    0.3   276     2.2   862.0    0.00 
  43   11:50   0.00   32.6    59    1.0   225     2.1   861.8    0.00 
  43   12:00   0.00   33.0    59    0.1   226     0.8   861.6    0.00 
  43   12:10   0.00   35.0    54    0.0     0     0.0   861.5    0.00 
  43   12:20   0.00   31.9    61    0.0   226     0.1   861.3    0.00 
  43   12:30   0.00   34.5    57    0.0   226     0.7   861.2    0.00 
  43   12:40   0.00   31.5    63    0.6   226     1.5   861.0    0.00 
  43   12:50   0.00   34.3    63    0.2   226     1.5   860.8    0.00 
  43   13:00   0.00   37.4    55    0.0     0     0.0   860.6    0.00 
  43   13:10   0.00   33.3    64    0.0   226     0.5   860.5    0.00 
  43   13:20   0.00   31.4    70    0.3   175     1.2   860.3    0.00 
  43   13:30   0.00   30.3    74    0.7   137     1.5   860.1    0.00 
  43   13:40   0.00   30.1    76    1.9   126     3.1   860.0    0.00 
  43   13:50   0.00   31.7    75    1.5   120     2.3   859.9    0.00 
  43   14:00   0.00   33.3    74    0.6   120     2.0   859.8    0.00 
  43   14:10   0.00   36.1    66    0.2   120     1.2   859.6    0.00 
  43   14:20   0.00   34.9    67    0.0   120     0.1   859.6    0.00 
  43   14:30   0.00   34.4    68    0.6   132     1.1   859.6    0.00 
  43   14:40   0.00   33.4    73    0.0     0     0.0   859.6    0.00 
  43   14:50   0.00   33.7    72    0.9   296     2.5   859.5    0.00 
  43   15:00   0.00   37.5    66    0.0     0     0.0   859.5    0.00 
  43   15:10   0.00   38.6    63    0.0     0     0.0   859.4    0.00 
  43   15:20   0.00   38.6    63    0.0     0     0.0   859.3    0.00 
  43   15:30   0.00   35.6    67    0.0     0     0.0   859.3    0.00 
  43   15:40   0.00   35.0    71    0.0     0     0.0   859.3    0.00 
  43   15:50   0.00   36.4    65    0.0     0     0.0   859.3    0.00 
  43   16:00   0.00   34.6    67    0.0     0     0.0   859.3    0.00 
  43   16:10   0.00   33.0    72    0.8   292     2.8   859.3    0.00 
  43   16:20   0.00   31.5    78    2.4   289     2.8   859.3    0.00 
  43   16:30   0.00   31.7    78    1.9   289     2.8   859.3    0.00 
  43   16:40   0.00   30.9    79    2.0   279     3.0   859.3    0.00 
  43   16:50   0.00   30.3    80    2.1   262     2.7   859.3    0.00 
  43   17:00   0.00   29.5    81    2.1   262     2.6   859.3    0.00 
  43   17:10   0.00   29.9    80    1.9   229     3.3   859.3    0.00 
  43   17:20   0.00   27.7    80    4.0   177     4.5   859.4    0.00 
  43   17:30   0.00   25.8    83    3.4   176     4.8   859.4    0.00 
  43   17:40   0.00   24.6    85    1.5   179     2.6   859.4    0.00 
  43   17:50   0.00   23.4    86    0.7   216     2.0   859.5    0.00 
  43   18:00   0.00   22.1    87    1.3   218     2.9   859.6    0.00 
  43   18:10   0.00   20.5    86    2.5   249     3.9   859.7    0.00 
  43   18:20   0.00   20.0    88    2.4   233     5.3   859.8    0.00 
  43   18:30   0.00   20.1    89    4.3   200     5.5   859.9    0.00 
  43   18:40   0.00   20.9    90    4.9   194     5.8   859.9    0.00 
  43   18:50   0.00   22.1    90    3.6   186     4.9   859.9    0.00 
  43   19:00   0.00   18.9    87    3.2   233     4.5   859.9    0.00 
  43   19:10   0.00   18.0    88    4.4   244     5.3   859.8    0.00 
  43   19:20   0.00   18.0    89    3.1   264     4.5   859.8    0.00 
  43   19:30   0.00   18.2    90    3.9   276     4.6   859.8    0.00 
  43   19:40   0.00   19.5    90    3.4   292     4.7   859.9    0.00 
  43   19:50   0.00   19.6    90    2.7   292     4.0   859.9    0.00 
  43   20:00   0.00   19.2    89    2.6   276     3.4   860.0    0.00 
  43   20:10   0.00   16.6    88    4.5   217     5.0   859.9    0.00 
  43   20:20   0.00   15.7    88    2.2   194     4.8   860.0    0.00 
  43   20:30   0.00   14.2    90    1.9   103     3.7   860.0    0.00 
  43   20:40   0.00   16.8    91    0.0     0     0.0   860.0    0.00 
  43   20:50   0.00   18.1    91    0.1    99     0.8   860.0    0.00 
  43   21:00   0.00   17.6    90    1.0    99     1.9   860.0    0.00 
  43   21:10   0.00   15.8    90    1.7   105     2.8   860.0    0.00 
  43   21:20   0.00   15.9    91    1.7   262     2.6   860.0    0.00 
  43   21:30   0.00   15.6    91    2.8   249     3.8   860.0    0.00 
  43   21:40   0.00   13.9    90    3.9   245     5.2   860.1    0.00 
  43   21:50   0.00   14.0    90    3.6   262     4.7   860.1    0.00 
  43   22:00   0.00   13.3    89    3.7   244     4.4   859.9    0.00 
  43   22:10   0.00   12.9    90    2.3   257     3.7   859.9    0.00 
  43   22:20   0.00   14.0    90    1.3   272     3.4   859.9    0.00 
  43   22:30   0.00   12.2    89    4.5   245     5.6   859.9    0.00 
  43   22:40   0.00   12.5    90    4.0   242     4.6   859.8    0.00 
  43   22:50   0.00   12.1    90    2.6   248     4.2   859.7    0.00 
  43   23:00   0.00   11.8    89    3.4   255     4.5   859.6    0.00 
  43   23:10   0.00   12.8    90    3.2   271     4.1   859.7    0.00 
  43   23:20   0.00   11.0    88    1.9   248     3.4   859.6    0.00 
  43   23:30   0.00    9.5    88    1.9   146     3.5   859.7    0.00 
  43   23:40   0.00    9.5    89    1.6   136     2.4   859.6    0.00 
  43   23:50   0.00   10.8    89    0.7   137     1.1   859.6    0.00 
  44    0:00   0.00   10.9    89    0.2   137     1.1   859.6    0.00 
  44    0:10   0.00   10.1    88    0.0     0     0.0   859.6    0.00 
  44    0:20   0.00   10.7    89    0.4   149     1.7   859.6    0.00 
  44    0:30   0.00   11.6    89    2.2   196     4.5   859.6    0.00 
  44    0:40   0.00    9.7    88    3.9   212     4.7   859.6    0.00 
  44    0:50   0.00   12.5    91    4.3   198     5.0   859.6    0.00 
  44    1:00   0.00   12.0    89    4.4   198     5.2   859.5    0.00 
  44    1:10   0.00   11.8    89    1.3   203     3.3   859.6    0.00 
  44    1:20   0.00   12.1    89    2.0   275     3.7   859.5    0.00 
  44    1:30   0.00   10.7    88    1.6   282     3.0   859.5    0.00 
  44    1:40   0.00   11.4    89    2.9   304     4.0   859.6    0.00 
  44    1:50   0.00   11.5    88    2.0   317     3.0   859.6    0.00 
  44    2:00   0.00   11.7    89    0.7   316     1.5   859.5    0.00 
  44    2:10   0.00   11.5    88    0.5   316     1.5   859.6    0.00 
  44    2:20   0.00    9.6    87    2.2   318     3.4   859.6    0.00 
  44    2:30   0.00    8.8    88    1.1   319     1.9   859.6    0.00 
  44    2:40   0.00    9.0    88    0.4   319     1.6   859.6    0.00 
  44    2:50   0.00    9.9    89    1.5   318     2.1   859.6    0.00 
  44    3:00   0.00    9.7    87    1.2   209     1.8   859.4    0.00 
  44    3:10   0.00    9.2    88    1.7   206     2.6   859.4    0.00 
  44    3:20   0.00    9.4    88    0.2   236     2.0   859.2    0.00 
  44    3:30   0.00    9.2    88    3.0   296     4.7   859.1    0.00 
  44    3:40   0.00    8.9    88    4.4   298     5.3   859.1    0.00 
  44    3:50   0.00    9.6    88    4.2   294     5.8   859.1    0.00 
  44    4:00   0.00    9.8    88    4.4   294     5.7   859.1    0.00 
  44    4:10   0.00    9.6    88    1.6   265     3.6   859.2    0.00 
  44    4:20   0.00    8.2    87    3.5   172     4.4   859.1    0.00 
  44    4:30   0.00    8.2    87    1.5   177     2.2   859.2    0.00 
  44    4:40   0.00    7.5    87    0.0   176     0.4   859.3    0.00 
  44    4:50   0.00    8.7    88    0.0     0     0.0   859.4    0.00 
  44    5:00   0.00    9.0    88    0.1   176     0.6   859.4    0.00 
  44    5:10   0.00    8.8    87    1.4   176     2.5   859.3    0.00 
  44    5:20   0.00    9.1    88    0.3   177     0.9   859.4    0.00 
  44    5:30   0.00    9.1    88    0.3   209     1.2   859.4    0.00 
  44    5:40   0.00    9.3    88    1.6   236     3.2   859.6    0.00 
  44    5:50   0.00    9.2    88    2.4   263     3.4   859.7    0.00 
  44    6:00   0.00    9.0    88    2.0   268     3.1   859.7    0.00 
  44    6:10   0.00    8.6    88    3.6   253     4.1   859.7    0.00 
  44    6:20   0.00    8.6    87    1.7   250     3.7   859.7    0.00 
  44    6:30   0.00    8.5    88    1.0   249     1.7   859.8    0.00 
  44    6:40   0.00    8.1    87    2.3   249     3.4   859.8    0.00 
  44    6:50   0.00    8.8    88    2.1   282     2.8   859.9    0.00 

Return to Sand Spring Valley graphs page.


Western Regional Climate Center,wrcc@dri.edu